createdAt,value
2022-08-30T00:01:05.172Z,81.91
2022-08-30T00:03:36.927Z,82.54
2022-08-30T00:06:06.552Z,82.40
2022-08-30T00:08:33.521Z,81.52
2022-08-30T00:11:01.527Z,81.12
2022-08-30T00:13:28.282Z,81.11
2022-08-30T00:15:54.880Z,80.70
2022-08-30T00:18:22.290Z,81.12
2022-08-30T00:20:52.098Z,81.57
2022-08-30T00:23:19.780Z,81.44
2022-08-30T00:25:46.255Z,82.07
2022-08-30T00:28:14.443Z,82.90
2022-08-30T00:30:41.753Z,82.51
2022-08-30T00:33:08.879Z,82.61
2022-08-30T00:35:35.518Z,82.55
2022-08-30T00:38:02.250Z,82.59
2022-08-30T00:40:30.206Z,83.36
2022-08-30T00:42:59.930Z,83.22
2022-08-30T00:45:35.870Z,83.00
2022-08-30T00:48:05.042Z,83.68
2022-08-30T00:50:36.124Z,83.73
2022-08-30T00:53:07.091Z,83.88
2022-08-30T00:55:34.381Z,83.61
2022-08-30T00:58:07.104Z,84.09
2022-08-30T01:00:34.181Z,85.37
2022-08-30T01:03:00.862Z,84.89
2022-08-30T01:05:27.592Z,85.39
2022-08-30T01:07:54.075Z,86.04
2022-08-30T01:10:20.732Z,85.57
2022-08-30T01:12:47.849Z,87.03
2022-08-30T01:15:15.741Z,86.59
2022-08-30T01:17:44.486Z,86.97
2022-08-30T01:20:20.510Z,87.25
2022-08-30T01:22:49.676Z,88.86
2022-08-30T01:25:25.010Z,87.77
2022-08-30T01:28:01.578Z,87.24
2022-08-30T01:30:30.193Z,87.14
2022-08-30T01:33:00.131Z,87.22
2022-08-30T01:35:28.371Z,87.75
2022-08-30T01:37:55.821Z,88.88
2022-08-30T01:40:22.468Z,89.00
2022-08-30T01:42:50.064Z,88.12
2022-08-30T01:45:16.578Z,92.86
2022-08-30T01:47:43.309Z,93.88
2022-08-30T01:50:10.793Z,93.72
2022-08-30T01:52:38.660Z,93.74
2022-08-30T01:55:06.958Z,93.25
2022-08-30T01:57:33.434Z,92.22
2022-08-30T02:00:00.007Z,92.49
2022-08-30T02:02:28.890Z,92.02
2022-08-30T02:04:56.817Z,95.74
2022-08-30T02:07:24.851Z,96.66
2022-08-30T02:09:52.672Z,95.89
2022-08-30T02:12:19.714Z,95.59
2022-08-30T02:14:46.245Z,94.36
2022-08-30T02:17:14.192Z,92.93
2022-08-30T02:19:41.616Z,91.70
2022-08-30T02:22:08.223Z,91.39
2022-08-30T02:24:34.747Z,91.19
2022-08-30T02:27:01.540Z,91.21
2022-08-30T02:29:28.191Z,91.01
2022-08-30T02:31:54.682Z,90.71
2022-08-30T02:34:21.378Z,90.66
2022-08-30T02:36:47.969Z,90.34
2022-08-30T02:39:14.521Z,89.77
2022-08-30T02:41:42.254Z,91.12
2022-08-30T02:44:10.689Z,96.05
2022-08-30T02:46:37.731Z,95.18
2022-08-30T02:51:52.094Z,93.73
2022-08-30T02:54:20.123Z,94.43
2022-08-30T02:56:48.124Z,97.02
2022-08-30T02:59:16.259Z,97.98
2022-08-30T03:01:43.114Z,97.37
2022-08-30T03:04:10.175Z,100.00
2022-08-30T03:06:37.305Z,99.12
2022-08-30T03:09:04.272Z,98.84
2022-08-30T03:11:30.978Z,98.55
2022-08-30T03:13:57.470Z,99.20
2022-08-30T03:16:24.012Z,100.00
2022-08-30T03:18:50.537Z,100.00
2022-08-30T03:21:17.819Z,100.00
2022-08-30T03:23:44.954Z,98.55
2022-08-30T03:26:14.683Z,98.65
2022-08-30T03:28:44.398Z,97.01
2022-08-30T03:31:12.024Z,96.41
2022-08-30T03:33:40.403Z,96.41
2022-08-30T03:36:08.100Z,96.22
2022-08-30T03:38:34.823Z,97.98
2022-08-30T03:41:01.554Z,97.68
2022-08-30T03:43:28.538Z,98.17
2022-08-30T03:45:56.419Z,98.71
2022-08-30T03:48:22.930Z,98.85
2022-08-30T03:50:49.439Z,97.82
2022-08-30T03:53:16.114Z,98.55
2022-08-30T03:55:42.871Z,97.61
2022-08-30T03:58:09.425Z,97.76
2022-08-30T04:00:36.174Z,98.04
2022-08-30T04:03:02.647Z,97.89
2022-08-30T04:05:29.484Z,98.17
2022-08-30T04:07:55.957Z,98.41
2022-08-30T04:10:22.520Z,97.90
2022-08-30T04:12:50.120Z,96.33
2022-08-30T04:15:18.385Z,96.26
2022-08-30T04:17:45.064Z,95.91
2022-08-30T04:20:11.884Z,94.73
2022-08-30T04:22:38.428Z,94.61
2022-08-30T04:25:06.661Z,95.18
2022-08-30T04:27:33.269Z,96.04
2022-08-30T04:30:00.225Z,96.03
2022-08-30T04:32:27.310Z,96.71
2022-08-30T04:34:59.624Z,96.67
2022-08-30T04:37:26.300Z,98.03
2022-08-30T04:39:57.701Z,99.98
2022-08-30T04:42:24.750Z,99.75
2022-08-30T04:44:51.511Z,100.00
2022-08-30T04:47:18.680Z,100.00
2022-08-30T04:49:45.359Z,100.00
2022-08-30T04:52:11.901Z,100.00
2022-08-30T04:54:38.528Z,100.00
2022-08-30T04:57:06.578Z,100.00
2022-08-30T04:59:33.387Z,100.00
2022-08-30T05:02:00.207Z,100.00
2022-08-30T05:04:26.843Z,100.00
2022-08-30T05:06:53.839Z,100.00
2022-08-30T05:09:21.609Z,100.00
2022-08-30T05:11:48.712Z,100.00
2022-08-30T05:14:15.299Z,100.00
2022-08-30T05:16:42.235Z,100.00
2022-08-30T05:19:09.352Z,100.00
2022-08-30T05:21:36.031Z,100.00
2022-08-30T05:24:02.783Z,100.00
2022-08-30T05:26:32.431Z,100.00
2022-08-30T05:28:59.265Z,100.00
2022-08-30T05:31:32.567Z,100.00
2022-08-30T05:33:59.680Z,99.22
2022-08-30T05:36:28.953Z,100.00
2022-08-30T05:38:56.096Z,98.97
2022-08-30T05:41:26.546Z,100.00
2022-08-30T05:43:55.774Z,99.65
2022-08-30T05:46:22.439Z,100.00
2022-08-30T05:48:49.991Z,100.00
2022-08-30T05:51:22.736Z,100.00
2022-08-30T05:53:50.241Z,100.00
2022-08-30T05:56:20.095Z,100.00
2022-08-30T05:58:47.661Z,100.00
2022-08-30T06:01:26.858Z,100.00
2022-08-30T06:03:55.154Z,99.47
2022-08-30T06:06:21.718Z,98.64
2022-08-30T06:08:48.987Z,100.00
2022-08-30T06:11:19.264Z,100.00
2022-08-30T06:13:46.283Z,100.00
2022-08-30T06:16:14.947Z,100.00
2022-08-30T06:18:41.546Z,100.00
2022-08-30T06:21:11.156Z,100.00
2022-08-30T06:23:41.093Z,100.00
2022-08-30T06:26:08.079Z,100.00
2022-08-30T06:28:34.891Z,99.41
2022-08-30T06:31:01.463Z,100.00
2022-08-30T06:33:28.038Z,100.00
2022-08-30T06:35:58.806Z,98.90
2022-08-30T06:38:26.584Z,99.48
2022-08-30T06:40:53.060Z,100.00
2022-08-30T06:43:20.795Z,100.00
2022-08-30T06:45:47.493Z,100.00
2022-08-30T06:48:14.036Z,100.00
2022-08-30T06:50:42.042Z,100.00
2022-08-30T06:53:09.676Z,100.00
2022-08-30T06:55:37.343Z,100.00
2022-08-30T06:58:04.740Z,100.00
2022-08-30T07:00:31.292Z,98.77
2022-08-30T07:02:58.554Z,100.00
2022-08-30T07:05:25.033Z,99.17
2022-08-30T07:07:53.325Z,98.31
2022-08-30T07:10:21.414Z,97.03
2022-08-30T07:12:48.578Z,98.00
2022-08-30T07:15:15.084Z,97.20
2022-08-30T07:18:00.729Z,95.40
2022-08-30T07:20:27.290Z,94.64
2022-08-30T07:22:53.795Z,93.76
2022-08-30T07:25:20.383Z,93.24
2022-08-30T07:27:46.903Z,92.56
2022-08-30T07:30:14.106Z,92.72
2022-08-30T07:32:40.945Z,91.58
2022-08-30T07:35:07.781Z,90.68
2022-08-30T07:37:34.357Z,91.92
2022-08-30T07:40:00.931Z,91.92
2022-08-30T07:42:27.453Z,90.62
2022-08-30T07:44:56.790Z,88.51
2022-08-30T07:47:23.622Z,88.33
2022-08-30T07:49:50.229Z,87.30
2022-08-30T07:52:16.800Z,85.92
2022-08-30T07:54:43.311Z,86.92
2022-08-30T07:57:09.913Z,85.32
2022-08-30T07:59:36.889Z,86.10
2022-08-30T08:02:04.108Z,84.86
2022-08-30T08:04:30.711Z,83.38
2022-08-30T08:06:57.203Z,82.81
2022-08-30T08:09:23.675Z,83.27
2022-08-30T08:11:50.136Z,82.51
2022-08-30T08:14:16.666Z,81.28
2022-08-30T08:16:44.764Z,80.87
2022-08-30T08:19:12.277Z,79.95
2022-08-30T08:21:38.871Z,80.54
2022-08-30T08:24:05.956Z,80.70
2022-08-30T08:26:36.704Z,80.90
2022-08-30T08:29:04.676Z,80.62
2022-08-30T08:31:33.369Z,79.11
2022-08-30T08:36:33.977Z,79.26
2022-08-30T08:39:01.002Z,78.91
2022-08-30T08:41:39.841Z,78.01
2022-08-30T08:44:14.129Z,77.32
2022-08-30T08:46:58.243Z,76.60
2022-08-30T08:49:25.347Z,76.96
2022-08-30T08:52:10.451Z,75.77
2022-08-30T08:54:53.888Z,75.05
2022-08-30T08:57:24.718Z,76.19
2022-08-30T08:59:54.276Z,75.38
2022-08-30T09:02:28.528Z,74.39
2022-08-30T09:04:59.519Z,74.36
2022-08-30T09:07:39.870Z,73.96
2022-08-30T09:10:07.278Z,74.18
2022-08-30T09:12:34.121Z,73.48
2022-08-30T09:15:17.973Z,74.09
2022-08-30T09:18:19.374Z,72.41
2022-08-30T09:20:49.062Z,72.67
2022-08-30T09:23:15.449Z,72.76
2022-08-30T09:26:06.665Z,72.41
2022-08-30T09:28:43.164Z,72.75
2022-08-30T09:31:48.755Z,70.11
2022-08-30T09:34:21.091Z,71.39
2022-08-30T09:36:52.827Z,71.01
2022-08-30T09:39:19.336Z,69.15
2022-08-30T09:41:50.244Z,71.39
2022-08-30T09:44:18.524Z,70.13
2022-08-30T09:46:48.799Z,68.26
2022-08-30T09:49:37.974Z,68.23
2022-08-30T09:52:16.901Z,67.58
2022-08-30T09:55:08.129Z,67.81
2022-08-30T09:57:37.097Z,66.97
2022-08-30T10:00:15.197Z,67.68
2022-08-30T10:03:07.552Z,68.18
2022-08-30T10:05:52.018Z,65.28
2022-08-30T10:08:45.428Z,65.29
2022-08-30T10:11:16.007Z,65.16
2022-08-30T10:13:56.300Z,64.63
2022-08-30T10:17:04.382Z,63.07
2022-08-30T10:19:57.611Z,64.38
2022-08-30T10:22:52.337Z,64.03
2022-08-30T10:25:30.231Z,63.82
2022-08-30T10:28:03.688Z,62.36
2022-08-30T10:30:33.642Z,68.04
2022-08-30T10:33:10.098Z,66.52
2022-08-30T10:35:43.017Z,63.60
2022-08-30T10:38:21.802Z,62.93
2022-08-30T10:41:13.937Z,64.22
2022-08-30T10:43:54.640Z,63.93
2022-08-30T10:46:33.038Z,63.21
2022-08-30T10:49:04.943Z,66.76
2022-08-30T10:51:42.007Z,61.62
2022-08-30T10:54:18.648Z,61.02
2022-08-30T10:56:49.399Z,61.41
2022-08-30T10:59:18.449Z,62.08
2022-08-30T11:02:06.582Z,60.62
2022-08-30T11:05:07.178Z,61.91
2022-08-30T11:07:52.215Z,62.58
2022-08-30T11:10:29.122Z,62.96
2022-08-30T11:13:09.723Z,60.29
2022-08-30T11:15:52.517Z,61.06
2022-08-30T11:18:20.247Z,59.77
2022-08-30T11:20:53.225Z,60.95
2022-08-30T11:23:29.119Z,60.69
2022-08-30T11:26:15.984Z,59.80
2022-08-30T11:28:47.280Z,58.64
2022-08-30T11:31:23.603Z,60.10
2022-08-30T11:33:52.438Z,56.37
2022-08-30T11:36:46.273Z,55.19
2022-08-30T11:39:49.083Z,55.90
2022-08-30T11:42:53.703Z,55.99
2022-08-30T11:45:24.673Z,55.61
2022-08-30T11:48:05.655Z,57.01
2022-08-30T11:50:55.146Z,54.48
2022-08-30T11:53:27.476Z,52.12
2022-08-30T11:56:04.204Z,51.44
2022-08-30T11:58:54.485Z,51.87
2022-08-30T12:01:51.535Z,50.84
2022-08-30T12:04:22.834Z,52.77
2022-08-30T12:06:59.021Z,51.84
2022-08-30T12:09:26.308Z,51.32
2022-08-30T12:11:52.770Z,52.04
2022-08-30T12:14:34.978Z,52.89
2022-08-30T12:17:22.181Z,52.16
2022-08-30T12:19:50.536Z,50.13
2022-08-30T12:22:18.479Z,48.14
2022-08-30T12:24:51.717Z,48.42
2022-08-30T12:27:23.292Z,47.65
2022-08-30T12:30:02.941Z,48.04
2022-08-30T12:32:31.157Z,49.74
2022-08-30T12:35:00.244Z,46.80
2022-08-30T12:37:34.104Z,47.74
2022-08-30T12:40:15.141Z,48.01
2022-08-30T12:42:51.289Z,47.29
2022-08-30T12:45:21.368Z,47.81
2022-08-30T12:47:55.144Z,45.54
2022-08-30T12:50:28.063Z,46.22
2022-08-30T12:53:01.273Z,46.66
2022-08-30T12:55:33.866Z,46.92
2022-08-30T12:58:04.108Z,46.70
2022-08-30T13:00:39.716Z,45.40
2022-08-30T13:03:36.699Z,45.39
2022-08-30T13:06:07.921Z,44.59
2022-08-30T13:08:38.260Z,44.88
2022-08-30T13:11:08.812Z,44.59
2022-08-30T13:13:44.578Z,44.21
2022-08-30T13:16:24.653Z,43.88
2022-08-30T13:19:15.229Z,44.40
2022-08-30T13:21:53.760Z,44.70
2022-08-30T13:24:24.804Z,45.17
2022-08-30T13:26:54.296Z,45.05
2022-08-30T13:29:25.371Z,45.21
2022-08-30T13:31:52.242Z,45.13
2022-08-30T13:34:22.248Z,45.23
2022-08-30T13:36:53.286Z,45.33
2022-08-30T13:39:21.696Z,44.60
2022-08-30T13:41:48.901Z,45.02
2022-08-30T13:44:15.955Z,44.42
2022-08-30T13:46:52.294Z,44.87
2022-08-30T13:52:22.953Z,45.69
2022-08-30T13:54:54.837Z,44.05
2022-08-30T14:00:18.968Z,44.56
2022-08-30T14:02:54.158Z,45.53
2022-08-30T14:05:48.330Z,46.43
2022-08-30T14:11:06.159Z,46.58
2022-08-30T14:13:32.870Z,46.88
2022-08-30T14:18:47.971Z,47.16
2022-08-30T14:21:15.606Z,46.08
2022-08-30T14:23:42.161Z,46.12
2022-08-30T14:26:14.317Z,46.00
2022-08-30T14:28:44.832Z,46.04
2022-08-30T14:31:12.260Z,46.43
2022-08-30T14:33:39.978Z,46.77
2022-08-30T14:36:12.487Z,45.57
2022-08-30T14:38:42.625Z,45.52
2022-08-30T14:41:10.747Z,45.64
2022-08-30T14:43:39.620Z,46.05
2022-08-30T14:46:06.225Z,46.24
2022-08-30T14:48:32.870Z,47.01
2022-08-30T14:50:59.478Z,48.45
2022-08-30T14:53:26.390Z,46.52
2022-08-30T14:55:52.904Z,46.13
2022-08-30T14:58:19.531Z,46.08
2022-08-30T15:00:52.790Z,46.81
2022-08-30T15:03:19.843Z,45.72
2022-08-30T15:05:53.015Z,45.37
2022-08-30T15:08:19.900Z,45.39
2022-08-30T15:10:47.410Z,45.57
2022-08-30T15:13:14.084Z,44.95
2022-08-30T15:15:42.705Z,44.96
2022-08-30T15:18:09.659Z,44.82
2022-08-30T15:20:36.425Z,44.83
2022-08-30T15:23:03.024Z,44.83
2022-08-30T15:25:31.784Z,44.86
2022-08-30T15:27:58.321Z,45.56
2022-08-30T15:30:25.201Z,45.40
2022-08-30T15:32:51.791Z,47.88
2022-08-30T15:35:18.482Z,45.43
2022-08-30T15:37:45.052Z,45.34
2022-08-30T15:40:11.725Z,45.45
2022-08-30T15:42:39.621Z,45.26
2022-08-30T15:45:06.915Z,45.08
2022-08-30T15:47:33.493Z,44.91
2022-08-30T15:50:04.109Z,44.61
2022-08-30T15:52:31.118Z,45.38
2022-08-30T15:54:58.375Z,45.15
2022-08-30T15:57:25.493Z,44.99
2022-08-30T15:59:54.351Z,44.30
2022-08-30T16:02:21.821Z,44.47
2022-08-30T16:04:54.126Z,44.63
2022-08-30T16:07:20.642Z,45.16
2022-08-30T16:09:47.553Z,45.54
2022-08-30T16:12:22.336Z,45.34
2022-08-30T16:14:50.451Z,45.44
2022-08-30T16:17:16.973Z,45.77
2022-08-30T16:19:44.823Z,45.30
2022-08-30T16:22:11.580Z,45.56
2022-08-30T16:24:39.579Z,45.67
2022-08-30T16:27:08.779Z,45.74
2022-08-30T16:29:35.608Z,45.39
2022-08-30T16:32:02.318Z,45.94
2022-08-30T16:34:28.917Z,45.69
2022-08-30T16:36:55.485Z,45.72
2022-08-30T16:39:22.309Z,45.59
2022-08-30T16:41:49.092Z,45.72
2022-08-30T16:44:18.546Z,45.94
2022-08-30T16:46:52.971Z,45.15
2022-08-30T16:49:20.275Z,44.73
2022-08-30T16:51:50.303Z,44.99
2022-08-30T16:54:17.559Z,44.96
2022-08-30T16:56:45.707Z,44.26
2022-08-30T16:59:13.155Z,44.45
2022-08-30T17:01:42.309Z,44.64
2022-08-30T17:04:10.407Z,44.62
2022-08-30T17:06:37.359Z,44.75
2022-08-30T17:09:06.170Z,44.60
2022-08-30T17:11:34.341Z,44.68
2022-08-30T17:14:01.613Z,44.79
2022-08-30T17:16:29.911Z,45.01
2022-08-30T17:19:00.502Z,45.26
2022-08-30T17:21:29.199Z,44.56
2022-08-30T17:24:01.886Z,44.68
2022-08-30T17:26:35.698Z,45.10
2022-08-30T17:29:03.460Z,44.76
2022-08-30T17:31:31.125Z,44.81
2022-08-30T17:34:03.194Z,44.76
2022-08-30T17:36:48.161Z,44.96
2022-08-30T17:39:16.265Z,45.08
2022-08-30T17:41:49.857Z,44.87
2022-08-30T17:44:33.307Z,45.80
2022-08-30T17:47:00.325Z,46.22
2022-08-30T17:49:28.951Z,46.17
2022-08-30T17:51:57.278Z,45.93
2022-08-30T17:54:26.648Z,45.64
2022-08-30T17:56:53.568Z,45.84
2022-08-30T17:59:25.409Z,45.84
2022-08-30T18:01:53.816Z,45.92
2022-08-30T18:04:21.145Z,46.46
2022-08-30T18:06:51.396Z,46.85
2022-08-30T18:09:18.225Z,46.86
2022-08-30T18:11:44.710Z,47.46
2022-08-30T18:14:11.538Z,47.48
2022-08-30T18:16:53.174Z,47.30
2022-08-30T18:19:26.208Z,47.89
2022-08-30T18:21:53.709Z,48.05
2022-08-30T18:24:21.437Z,48.55
2022-08-30T18:26:48.154Z,48.56
2022-08-30T18:29:18.987Z,48.09
2022-08-30T18:31:55.362Z,48.07
2022-08-30T18:34:21.832Z,48.86
2022-08-30T18:36:48.755Z,48.61
2022-08-30T18:39:15.250Z,48.92
2022-08-30T18:41:43.231Z,48.80
2022-08-30T18:44:26.814Z,48.71
2022-08-30T18:46:56.682Z,48.94
2022-08-30T18:49:24.956Z,49.28
2022-08-30T18:51:51.475Z,49.12
2022-08-30T18:54:18.738Z,49.73
2022-08-30T18:56:45.782Z,49.77
2022-08-30T18:59:12.998Z,50.05
2022-08-30T19:01:40.385Z,49.62
2022-08-30T19:04:07.705Z,49.46
2022-08-30T19:06:34.568Z,49.93
2022-08-30T19:09:01.350Z,50.51
2022-08-30T19:11:28.020Z,50.62
2022-08-30T19:13:54.965Z,50.27
2022-08-30T19:16:22.007Z,50.75
2022-08-30T19:18:48.781Z,50.95
2022-08-30T19:21:15.482Z,50.77
2022-08-30T19:23:43.559Z,50.31
2022-08-30T19:26:10.936Z,50.62
2022-08-30T19:28:37.863Z,50.74
2022-08-30T19:31:04.749Z,51.37
2022-08-30T19:33:33.428Z,51.36
2022-08-30T19:36:00.574Z,51.32
2022-08-30T19:38:27.282Z,51.71
2022-08-30T19:41:00.924Z,52.46
2022-08-30T19:43:28.292Z,52.10
2022-08-30T19:45:58.840Z,52.44
2022-08-30T19:48:29.455Z,52.43
2022-08-30T19:51:00.134Z,52.54
2022-08-30T19:53:27.084Z,52.33
2022-08-30T19:55:53.902Z,52.35
2022-08-30T19:58:20.358Z,52.77
2022-08-30T20:01:01.164Z,52.44
2022-08-30T20:03:34.016Z,53.03
2022-08-30T20:06:01.326Z,53.79
2022-08-30T20:08:29.970Z,54.08
2022-08-30T20:10:57.045Z,54.53
2022-08-30T20:13:24.077Z,55.09
2022-08-30T20:15:55.763Z,55.00
2022-08-30T20:18:23.387Z,56.42
2022-08-30T20:20:50.260Z,58.23
2022-08-30T20:23:21.653Z,59.66
2022-08-30T20:25:51.920Z,60.20
2022-08-30T20:28:20.525Z,61.30
2022-08-30T20:30:48.158Z,61.10
2022-08-30T20:33:14.690Z,62.45
2022-08-30T20:35:48.740Z,62.59
2022-08-30T20:38:21.177Z,63.61
2022-08-30T20:40:50.358Z,62.58
2022-08-30T20:43:22.289Z,65.22
2022-08-30T20:45:49.029Z,65.31
2022-08-30T20:48:15.981Z,64.91
2022-08-30T20:50:43.482Z,65.43
2022-08-30T20:53:10.955Z,65.90
2022-08-30T20:55:46.700Z,66.11
2022-08-30T20:58:14.639Z,66.60
2022-08-30T21:00:45.724Z,66.71
2022-08-30T21:03:27.792Z,65.55
2022-08-30T21:05:54.891Z,66.02
2022-08-30T21:08:21.459Z,66.35
2022-08-30T21:10:48.050Z,66.26
2022-08-30T21:13:14.752Z,66.07
2022-08-30T21:15:45.688Z,66.34
2022-08-30T21:18:13.658Z,67.16
2022-08-30T21:20:40.315Z,67.34
2022-08-30T21:23:06.915Z,67.07
2022-08-30T21:25:34.132Z,67.17
2022-08-30T21:28:00.940Z,67.72
2022-08-30T21:30:27.452Z,67.24
2022-08-30T21:32:55.082Z,67.83
2022-08-30T21:35:45.041Z,69.99
2022-08-30T21:38:11.526Z,69.15
2022-08-30T21:40:38.213Z,68.95
2022-08-30T21:43:06.043Z,68.98
2022-08-30T21:45:32.734Z,69.89
2022-08-30T21:47:59.359Z,69.30
2022-08-30T21:50:25.868Z,69.04
2022-08-30T21:52:52.797Z,69.56
2022-08-30T21:55:19.272Z,69.83
2022-08-30T21:57:45.753Z,70.55
2022-08-30T22:00:18.855Z,69.34
2022-08-30T22:02:45.581Z,70.08
2022-08-30T22:05:15.717Z,69.92
2022-08-30T22:07:42.203Z,69.06
2022-08-30T22:10:10.489Z,69.94
2022-08-30T22:12:37.032Z,70.98
2022-08-30T22:15:05.004Z,70.40
2022-08-30T22:17:31.754Z,70.69
2022-08-30T22:19:58.229Z,70.05
2022-08-30T22:22:24.770Z,70.72
2022-08-30T22:24:51.328Z,70.53
2022-08-30T22:27:17.835Z,70.44
2022-08-30T22:29:44.321Z,70.90
2022-08-30T22:32:10.871Z,70.86
2022-08-30T22:34:38.702Z,71.55
2022-08-30T22:37:05.197Z,70.60
2022-08-30T22:39:31.742Z,71.13
2022-08-30T22:41:58.233Z,70.53
2022-08-30T22:44:25.421Z,70.78
2022-08-30T22:46:51.884Z,70.13
2022-08-30T22:49:18.360Z,71.35
2022-08-30T22:51:44.839Z,72.20
2022-08-30T22:54:11.381Z,71.94
2022-08-30T22:56:39.654Z,71.93
2022-08-30T22:59:06.517Z,72.17
2022-08-30T23:01:39.865Z,72.14
2022-08-30T23:04:08.162Z,72.35
2022-08-30T23:06:35.274Z,72.10
2022-08-30T23:09:03.297Z,71.70
2022-08-30T23:11:30.696Z,72.85
2022-08-30T23:14:00.949Z,71.93
2022-08-30T23:16:27.440Z,71.57
2022-08-30T23:18:54.002Z,71.82
2022-08-30T23:21:26.579Z,72.87
2022-08-30T23:24:13.697Z,72.28
2022-08-30T23:27:00.514Z,72.42
2022-08-30T23:29:46.253Z,72.17
2022-08-30T23:32:32.141Z,72.43
2022-08-30T23:35:17.385Z,72.42
2022-08-30T23:38:02.838Z,73.20
2022-08-30T23:40:48.175Z,73.50
2022-08-30T23:43:33.364Z,72.62
2022-08-30T23:46:19.478Z,73.15
2022-08-30T23:49:06.046Z,73.49
2022-08-30T23:51:51.801Z,73.54
2022-08-30T23:54:36.762Z,74.42
2022-08-30T23:57:23.313Z,73.38
